KFLO

Florence Regional Airport

Florence, South Carolina, USA
METAR KFLO 201953Z 21010KT 10SM FEW042 33/23 A2999 RMK AO2 SLP153 T03330228
Observed Flight Rules
Aug-20 @ 19:53 UTC (36 minutes ago) Visual Flight Rules
Wind Visibility Clouds
210° at 10 knots 10 miles
  • Few at 4,200' AGL
Temperatures Readings
Current 33°C / 91°F
Dewpoint 23°C / 73°F
Humidity 56%
Altimeter 29.99" Hg
Pressure 1015.3 hPa
Elevation 44
METAR KFLO 201953Z 21010KT 10SM FEW042 33/23 A2999 RMK AO2 SLP153 T03330228
Observed Flight Rules
Aug-20 @ 19:53 UTC
(36 minutes ago)
VFR
Wind Visibility
210° at 10 knots 10 miles
Clouds
  • Few at 4,200' AGL
Temperature Dewpoint
33°C / 91°F 23°C / 73°F
Humidity Altimeter Pressure
56% 29.99" Hg 1015.3 hPa